Time;durP1;ratioP1;P1;durP2;ratioP2;P2;SDS_P1;SDS_P2;PMS_P1;PMS_P2;Temp;Humidity;BMP_temperature;BMP_pressure;BME280_temperature;BME280_humidity;BME280_pressure;Samples;Min_cycle;Max_cycle;Signal;HPM_P1;HPM_P2
2023/08/14 00:00:19;;;;;;;13.80;6.03;;;18.80;99.90;;;;;;5112724;28;20577;-67
2023/08/14 00:03:06;;;;;;;8.93;6.23;;;18.60;99.90;;;;;;5112171;28;20213;-67
2023/08/14 00:05:55;;;;;;;12.97;6.27;;;18.60;99.90;;;;;;5113154;28;20198;-67
2023/08/14 00:08:42;;;;;;;16.63;6.73;;;18.70;99.90;;;;;;5112544;28;20202;-67
2023/08/14 00:11:29;;;;;;;8.50;6.50;;;18.60;99.90;;;;;;5112089;28;20226;-67
2023/08/14 00:14:16;;;;;;;12.30;6.27;;;18.60;99.90;;;;;;5112602;28;20220;-68
2023/08/14 00:17:03;;;;;;;7.70;5.60;;;18.60;99.90;;;;;;5112521;28;20233;-68
2023/08/14 00:19:51;;;;;;;11.23;6.13;;;18.60;99.90;;;;;;5112775;28;20281;-67
2023/08/14 00:22:39;;;;;;;10.17;6.10;;;18.60;99.90;;;;;;5112294;28;20268;-67
2023/08/14 00:25:27;;;;;;;10.37;5.77;;;18.50;99.90;;;;;;5112044;28;20215;-68
2023/08/14 00:28:14;;;;;;;9.90;6.03;;;18.30;99.90;;;;;;5112241;28;20198;-67
2023/08/14 00:31:01;;;;;;;12.43;6.00;;;18.30;99.90;;;;;;5112187;28;20209;-68
2023/08/14 00:33:49;;;;;;;9.80;6.70;;;18.30;99.90;;;;;;5111681;28;20551;-67
2023/08/14 00:36:36;;;;;;;7.43;5.70;;;18.30;99.90;;;;;;5111717;28;20553;-67
2023/08/14 00:39:25;;;;;;;8.93;6.17;;;18.30;99.90;;;;;;5111832;28;20206;-67
2023/08/14 00:42:12;;;;;;;9.33;6.23;;;18.30;99.90;;;;;;5112769;28;20195;-67
2023/08/14 00:44:59;;;;;;;11.27;6.10;;;18.20;99.90;;;;;;5111875;28;20198;-68
2023/08/14 00:47:47;;;;;;;10.63;6.00;;;18.30;99.90;;;;;;5112495;28;20199;-68
2023/08/14 00:50:35;;;;;;;11.57;5.77;;;18.20;99.90;;;;;;5112490;28;20210;-67
2023/08/14 00:53:22;;;;;;;10.40;6.00;;;18.10;99.90;;;;;;5111348;28;20272;-67
2023/08/14 00:56:11;;;;;;;11.73;6.17;;;18.00;99.90;;;;;;5111505;28;20206;-68
2023/08/14 00:58:58;;;;;;;7.63;5.80;;;18.10;99.90;;;;;;5108447;28;20257;-67
2023/08/14 01:01:45;;;;;;;8.23;5.80;;;18.00;99.90;;;;;;5100322;28;20730;-67
2023/08/14 01:04:32;;;;;;;8.33;6.07;;;18.00;99.90;;;;;;5090434;28;20199;-67
2023/08/14 01:07:20;;;;;;;15.00;5.83;;;18.00;99.90;;;;;;5090381;28;20195;-67
2023/08/14 01:10:08;;;;;;;12.73;6.13;;;18.00;99.90;;;;;;5091596;28;20207;-68
2023/08/14 01:13:00;;;;;;;6.50;5.47;;;18.10;99.90;;;;;;5090973;28;20207;-67
2023/08/14 01:15:48;;;;;;;14.30;5.90;;;18.00;99.90;;;;;;5090369;28;20197;-68
2023/08/14 01:18:37;;;;;;;10.73;5.90;;;18.00;99.90;;;;;;5090971;28;20220;-68
2023/08/14 01:21:36;;;;;;;8.83;5.97;;;18.00;99.90;;;;;;5091672;28;20344;-68
2023/08/14 01:24:33;;;;;;;6.77;5.80;;;18.00;99.90;;;;;;5091107;28;20638;-68
2023/08/14 01:27:22;;;;;;;6.97;5.90;;;18.00;99.90;;;;;;5091184;28;20204;-68
2023/08/14 01:30:10;;;;;;;8.90;5.57;;;18.00;99.90;;;;;;5091159;28;20202;-67
2023/08/14 01:32:57;;;;;;;9.37;5.90;;;17.90;99.90;;;;;;5090505;28;20194;-68
2023/08/14 01:35:48;;;;;;;7.20;5.87;;;17.90;99.90;;;;;;5091130;28;20209;-68
2023/08/14 01:38:38;;;;;;;9.60;5.77;;;18.00;99.90;;;;;;5090529;28;20688;-68
2023/08/14 01:41:27;;;;;;;10.17;5.70;;;18.00;99.90;;;;;;5091589;28;20726;-68
2023/08/14 01:44:16;;;;;;;10.03;5.80;;;18.00;99.90;;;;;;5090176;28;20280;-67
2023/08/14 01:47:04;;;;;;;7.93;5.73;;;17.90;99.90;;;;;;5090493;28;20210;-68
2023/08/14 01:49:51;;;;;;;9.97;5.73;;;17.90;99.90;;;;;;5090865;28;20194;-68
2023/08/14 01:52:38;;;;;;;12.70;6.17;;;17.90;99.90;;;;;;5090281;28;20288;-68
2023/08/14 01:55:25;;;;;;;11.27;6.93;;;17.80;99.90;;;;;;5090707;28;20233;-68
2023/08/14 01:58:12;;;;;;;9.90;6.33;;;17.80;99.90;;;;;;5090810;28;20220;-68
2023/08/14 02:01:01;;;;;;;10.47;6.27;;;17.80;99.90;;;;;;5090448;28;20720;-68
2023/08/14 02:03:48;;;;;;;10.33;6.00;;;17.80;99.90;;;;;;5090332;28;20228;-68
2023/08/14 02:06:35;;;;;;;7.87;5.20;;;17.70;99.90;;;;;;5089803;28;20197;-68
2023/08/14 02:09:23;;;;;;;7.40;5.83;;;17.70;99.90;;;;;;5091203;28;20207;-68
2023/08/14 02:12:10;;;;;;;8.70;5.53;;;17.70;99.90;;;;;;5090088;28;20301;-68
2023/08/14 02:14:57;;;;;;;9.77;5.87;;;17.70;99.90;;;;;;5089953;28;20199;-68
2023/08/14 02:17:46;;;;;;;9.00;5.93;;;17.60;99.90;;;;;;5089497;28;20211;-68
2023/08/14 02:20:33;;;;;;;6.37;5.40;;;17.60;99.90;;;;;;5089952;28;20201;-68
2023/08/14 02:23:20;;;;;;;14.57;6.30;;;17.60;99.90;;;;;;5089355;28;20664;-68
2023/08/14 02:26:08;;;;;;;10.33;5.83;;;17.60;99.90;;;;;;5089464;28;20333;-68
2023/08/14 02:28:57;;;;;;;6.73;5.40;;;17.60;99.90;;;;;;5089804;28;20194;-68
2023/08/14 02:31:46;;;;;;;8.57;5.70;;;17.60;99.90;;;;;;5093542;28;20569;-68
2023/08/14 02:34:42;;;;;;;7.67;5.77;;;17.50;99.90;;;;;;5093639;28;20205;-68
2023/08/14 02:37:29;;;;;;;6.90;5.43;;;17.50;99.90;;;;;;5094382;28;20214;-68
2023/08/14 02:40:16;;;;;;;6.90;5.67;;;17.50;99.90;;;;;;5093177;28;20274;-68
2023/08/14 02:43:04;;;;;;;12.27;5.37;;;17.50;99.90;;;;;;5093574;28;20227;-68
2023/08/14 02:45:51;;;;;;;9.87;5.73;;;17.50;99.90;;;;;;5093471;28;20248;-68
2023/08/14 02:48:38;;;;;;;6.57;5.30;;;17.50;99.90;;;;;;5093749;28;20199;-68
2023/08/14 02:51:27;;;;;;;6.27;5.67;;;17.50;99.90;;;;;;5093692;28;20308;-68
2023/08/14 02:54:14;;;;;;;6.70;5.43;;;17.50;99.90;;;;;;5093330;28;20202;-68
2023/08/14 02:57:01;;;;;;;7.90;5.37;;;17.50;99.90;;;;;;5093300;28;20577;-68
2023/08/14 02:59:49;;;;;;;8.33;6.20;;;17.50;99.90;;;;;;5093316;28;20201;-68
2023/08/14 03:02:36;;;;;;;6.30;5.53;;;17.50;99.90;;;;;;5111146;28;20224;-68
2023/08/14 03:05:23;;;;;;;10.13;5.90;;;17.50;99.90;;;;;;5113948;28;20579;-68
2023/08/14 03:08:12;;;;;;;12.10;5.47;;;17.50;99.90;;;;;;5113381;28;20210;-68
2023/08/14 03:10:59;;;;;;;8.60;5.37;;;17.50;99.90;;;;;;5092826;28;20204;-68
2023/08/14 03:13:46;;;;;;;11.30;5.90;;;17.40;99.90;;;;;;5092935;28;20198;-68
2023/08/14 03:16:35;;;;;;;9.27;5.70;;;17.30;99.90;;;;;;5093310;28;20281;-67
2023/08/14 03:19:23;;;;;;;8.13;5.40;;;17.30;99.90;;;;;;5092779;28;20232;-68
2023/08/14 03:22:10;;;;;;;11.47;6.00;;;17.40;99.90;;;;;;5092524;28;20193;-68
2023/08/14 03:24:59;;;;;;;12.03;6.33;;;17.40;99.90;;;;;;5093451;28;20265;-68
2023/08/14 03:27:46;;;;;;;6.10;5.50;;;17.40;99.90;;;;;;5092550;28;20197;-68
2023/08/14 03:30:34;;;;;;;12.40;5.73;;;17.50;99.90;;;;;;5093160;28;20193;-68
2023/08/14 03:33:21;;;;;;;9.83;5.63;;;17.50;99.90;;;;;;5093053;28;20206;-68
2023/08/14 03:36:09;;;;;;;9.07;6.10;;;17.40;99.90;;;;;;5093014;28;20585;-68
2023/08/14 03:38:56;;;;;;;10.30;6.27;;;17.50;99.90;;;;;;5092236;28;20261;-68
2023/08/14 03:41:45;;;;;;;7.20;5.53;;;17.50;99.90;;;;;;5092978;28;20667;-68
2023/08/14 03:44:33;;;;;;;8.63;6.00;;;17.50;99.90;;;;;;5092418;28;20204;-68
2023/08/14 03:47:20;;;;;;;12.10;5.60;;;17.50;99.90;;;;;;5092056;28;20201;-68
2023/08/14 03:50:10;;;;;;;12.90;5.70;;;17.40;99.90;;;;;;5093178;28;20214;-68
2023/08/14 03:52:57;;;;;;;13.20;5.33;;;17.50;99.90;;;;;;5092409;28;20230;-68
2023/08/14 03:55:45;;;;;;;8.13;5.97;;;17.60;99.90;;;;;;5092051;28;20210;-68
2023/08/14 03:58:34;;;;;;;8.00;5.43;;;17.70;99.90;;;;;;5092701;28;20301;-68
2023/08/14 04:01:21;;;;;;;7.37;5.60;;;17.70;99.90;;;;;;5092507;28;20241;-68
2023/08/14 04:04:08;;;;;;;8.17;5.50;;;17.70;99.90;;;;;;5092485;28;20222;-68
2023/08/14 04:06:56;;;;;;;7.87;6.30;;;17.80;99.90;;;;;;5095366;28;20206;-68
2023/08/14 04:09:43;;;;;;;7.50;5.77;;;17.90;99.90;;;;;;5112613;28;20200;-68
2023/08/14 04:12:31;;;;;;;8.33;5.97;;;17.90;99.90;;;;;;5112829;28;20204;-68
2023/08/14 04:15:21;;;;;;;7.67;5.87;;;17.90;99.90;;;;;;5112523;28;20203;-68
2023/08/14 04:18:08;;;;;;;8.77;5.63;;;17.90;99.90;;;;;;5112496;28;20295;-68
2023/08/14 04:20:55;;;;;;;7.13;5.90;;;17.90;99.90;;;;;;5112298;28;20216;-68
2023/08/14 04:23:43;;;;;;;11.93;5.10;;;18.00;99.90;;;;;;5112064;28;20672;-68
2023/08/14 04:26:30;;;;;;;8.67;5.73;;;18.00;99.90;;;;;;5111811;28;20203;-68
2023/08/14 04:29:18;;;;;;;8.87;5.20;;;18.10;99.90;;;;;;5112504;28;20250;-68
2023/08/14 04:32:07;;;;;;;11.53;5.80;;;18.10;99.90;;;;;;5112131;28;20206;-68
2023/08/14 04:34:54;;;;;;;6.67;5.00;;;18.10;99.90;;;;;;5112231;28;20202;-68
2023/08/14 04:37:42;;;;;;;8.83;5.83;;;18.10;99.90;;;;;;5112118;28;20207;-68
2023/08/14 04:40:29;;;;;;;8.37;5.30;;;18.20;99.90;;;;;;5112034;28;20572;-68
2023/08/14 04:43:18;;;;;;;8.20;5.47;;;18.20;99.90;;;;;;5112142;28;20200;-68
2023/08/14 04:46:09;;;;;;;9.80;5.37;;;18.30;99.90;;;;;;5112150;28;20198;-69
2023/08/14 04:48:59;;;;;;;7.60;5.60;;;18.40;99.90;;;;;;5111930;28;20192;-68
2023/08/14 04:51:46;;;;;;;11.17;5.90;;;18.60;99.90;;;;;;5111630;28;20218;-68
2023/08/14 04:54:34;;;;;;;10.37;5.70;;;18.70;99.90;;;;;;5112025;28;20565;-68
2023/08/14 04:57:22;;;;;;;9.77;5.70;;;18.70;99.90;;;;;;5110505;28;20202;-68
2023/08/14 05:00:10;;;;;;;9.83;5.83;;;18.80;99.90;;;;;;5111771;28;20221;-68
2023/08/14 05:02:57;;;;;;;5.93;4.83;;;19.00;99.90;;;;;;5111903;28;20230;-68
2023/08/14 05:05:52;;;;;;;5.67;5.07;;;19.20;99.90;;;;;;5111667;28;20217;-68
2023/08/14 05:08:39;;;;;;;7.73;5.33;;;19.30;99.90;;;;;;5111637;28;20223;-68
2023/08/14 05:11:26;;;;;;;7.20;4.77;;;19.50;99.90;;;;;;5112055;28;20206;-68
2023/08/14 05:14:14;;;;;;;5.37;4.77;;;19.70;99.90;;;;;;5111366;28;20567;-68
2023/08/14 05:17:01;;;;;;;8.70;5.33;;;19.80;99.90;;;;;;5111483;28;20198;-68
2023/08/14 05:19:49;;;;;;;7.53;5.40;;;20.00;99.90;;;;;;5110968;28;20218;-68
2023/08/14 05:22:37;;;;;;;10.30;5.00;;;20.20;99.90;;;;;;5110849;28;20206;-68
2023/08/14 05:25:25;;;;;;;7.13;4.73;;;20.30;99.90;;;;;;5111630;28;20676;-68
2023/08/14 05:28:12;;;;;;;6.90;4.90;;;20.40;99.90;;;;;;5110906;28;20203;-68
2023/08/14 05:31:00;;;;;;;6.70;5.20;;;20.60;99.90;;;;;;5111604;28;20231;-68
2023/08/14 05:33:47;;;;;;;8.20;5.37;;;20.80;99.90;;;;;;5111381;28;20226;-68
2023/08/14 05:36:34;;;;;;;6.20;5.57;;;21.00;99.90;;;;;;5111465;28;20202;-68
2023/08/14 05:39:23;;;;;;;7.13;5.40;;;21.10;99.90;;;;;;5111212;28;20210;-68
2023/08/14 05:42:10;;;;;;;7.67;5.27;;;21.10;99.90;;;;;;5110731;28;20196;-68
2023/08/14 05:44:57;;;;;;;8.77;5.87;;;21.20;99.90;;;;;;5110736;28;20244;-68
2023/08/14 05:47:45;;;;;;;8.63;5.63;;;21.50;99.90;;;;;;5110753;28;20612;-68
2023/08/14 05:50:32;;;;;;;9.30;5.17;;;21.60;99.90;;;;;;5110574;28;20197;-68
2023/08/14 05:53:19;;;;;;;8.57;5.20;;;21.80;99.90;;;;;;5110642;28;20610;-68
2023/08/14 05:56:08;;;;;;;6.53;5.10;;;22.00;99.90;;;;;;5110635;28;20244;-68
2023/08/14 05:58:57;;;;;;;6.40;4.70;;;22.20;99.90;;;;;;5110318;28;20211;-68
2023/08/14 06:01:45;;;;;;;7.97;4.93;;;22.40;99.90;;;;;;5111151;28;20264;-68
2023/08/14 06:04:33;;;;;;;6.33;4.83;;;22.50;99.90;;;;;;5111597;28;20200;-68
2023/08/14 06:07:20;;;;;;;6.70;4.83;;;22.70;99.90;;;;;;5115091;28;20196;-68
2023/08/14 06:10:08;;;;;;;7.30;4.43;;;22.90;99.90;;;;;;5115139;28;20194;-68
2023/08/14 06:12:56;;;;;;;7.33;3.63;;;23.10;99.90;;;;;;5114922;28;20192;-68
2023/08/14 06:15:44;;;;;;;7.33;3.50;;;23.30;99.90;;;;;;5115163;28;20218;-68
2023/08/14 06:18:31;;;;;;;4.20;3.57;;;23.40;99.90;;;;;;5115101;28;20572;-67
2023/08/14 06:21:18;;;;;;;5.53;3.57;;;23.60;99.90;;;;;;5114319;28;20279;-68
2023/08/14 06:24:06;;;;;;;6.45;3.60;;;23.70;99.90;;;;;;5113518;28;20633;-68
2023/08/14 06:26:54;;;;;;;5.55;3.33;;;23.80;99.90;;;;;;5114881;28;20207;-68
2023/08/14 06:29:42;;;;;;;5.53;3.30;;;24.10;99.90;;;;;;5114385;28;20202;-68
2023/08/14 06:32:30;;;;;;;6.70;3.42;;;24.20;99.90;;;;;;5114821;28;20199;-67
2023/08/14 06:35:18;;;;;;;6.00;3.30;;;24.30;99.90;;;;;;5114140;28;20195;-67
2023/08/14 06:38:05;;;;;;;3.80;3.35;;;24.50;99.90;;;;;;5113255;28;20195;-67
2023/08/14 06:40:52;;;;;;;7.90;3.28;;;24.60;99.90;;;;;;5114356;28;20203;-67
2023/08/14 06:43:39;;;;;;;4.47;3.40;;;24.70;99.90;;;;;;5113788;28;20214;-67
2023/08/14 06:46:28;;;;;;;5.18;3.50;;;24.90;99.90;;;;;;5113976;28;20207;-67
2023/08/14 06:49:15;;;;;;;4.85;3.60;;;25.20;99.90;;;;;;5114103;28;20192;-67
2023/08/14 06:52:05;;;;;;;5.75;3.22;;;25.50;99.90;;;;;;5113889;28;20602;-67
2023/08/14 06:54:52;;;;;;;4.93;3.20;;;25.60;99.90;;;;;;5113503;28;20199;-67
2023/08/14 06:57:39;;;;;;;9.55;3.15;;;25.80;99.90;;;;;;5113560;28;20195;-67
2023/08/14 07:00:26;;;;;;;8.27;3.45;;;25.90;99.90;;;;;;5112993;28;20561;-67
2023/08/14 07:03:16;;;;;;;3.92;3.15;;;25.90;99.90;;;;;;5113197;28;20552;-67
2023/08/14 07:06:03;;;;;;;4.97;3.67;;;26.00;99.90;;;;;;5114028;28;20200;-68
2023/08/14 07:08:50;;;;;;;4.90;3.65;;;26.20;99.90;;;;;;5114013;28;20202;-68
2023/08/14 07:11:39;;;;;;;6.07;3.20;;;26.70;99.90;;;;;;5113462;28;20280;-67
2023/08/14 07:14:36;;;;;;;5.55;3.15;;;27.10;99.90;;;;;;5113478;28;20680;-68
2023/08/14 07:17:26;;;;;;;4.43;3.10;;;26.90;99.90;;;;;;5112058;28;20226;-68
2023/08/14 07:20:15;;;;;;;10.73;3.08;;;27.10;99.20;;;;;;5113602;28;20227;-67
2023/08/14 07:23:02;;;;;;;5.78;2.90;;;27.30;99.10;;;;;;5113299;28;20206;-67
2023/08/14 07:25:57;;;;;;;4.65;3.17;;;27.60;92.40;;;;;;5113246;28;20199;-67
2023/08/14 07:28:45;;;;;;;7.63;3.47;;;27.70;99.90;;;;;;5113124;28;20203;-67
2023/08/14 07:31:32;;;;;;;4.10;3.67;;;27.60;94.70;;;;;;5112853;28;20565;-67
2023/08/14 07:34:20;;;;;;;4.38;3.47;;;27.20;94.90;;;;;;5113618;28;20195;-67
2023/08/14 07:37:08;;;;;;;4.03;3.30;;;27.20;97.40;;;;;;5110989;28;20199;-67
2023/08/14 07:39:56;;;;;;;7.28;3.42;;;27.30;99.90;;;;;;5113024;28;20716;-67
2023/08/14 07:42:43;;;;;;;4.50;3.47;;;27.20;93.70;;;;;;5113469;28;20206;-67
2023/08/14 07:45:30;;;;;;;3.50;3.10;;;27.50;93.50;;;;;;5112751;28;20198;-67
2023/08/14 07:48:18;;;;;;;4.65;3.33;;;27.60;92.10;;;;;;5112741;28;20202;-67
2023/08/14 07:51:12;;;;;;;5.25;3.25;;;27.40;97.10;;;;;;5112864;28;20673;-67
2023/08/14 07:54:01;;;;;;;8.98;3.58;;;27.20;98.80;;;;;;5111126;28;20230;-67
2023/08/14 07:56:48;;;;;;;5.38;2.85;;;27.40;89.70;;;;;;5112749;28;20195;-66
2023/08/14 07:59:35;;;;;;;5.57;3.22;;;27.30;94.90;;;;;;5112900;28;20582;-67
2023/08/14 08:02:23;;;;;;;4.55;3.45;;;27.80;94.80;;;;;;5112826;28;20736;-67
2023/08/14 08:05:10;;;;;;;5.95;2.97;;;28.20;94.50;;;;;;5112188;28;20295;-67
2023/08/14 08:07:57;;;;;;;5.03;2.90;;;27.90;92.60;;;;;;5112207;28;20206;-67
2023/08/14 08:10:46;;;;;;;4.47;2.80;;;27.30;83.40;;;;;;5092390;28;20646;-67
2023/08/14 08:13:34;;;;;;;4.10;3.22;;;27.20;89.20;;;;;;5091955;28;20204;-67
2023/08/14 08:16:27;;;;;;;6.65;3.00;;;27.10;90.40;;;;;;5091739;28;20196;-67
2023/08/14 08:19:16;;;;;;;4.15;3.13;;;27.30;89.20;;;;;;5092187;28;20281;-67
2023/08/14 08:22:05;;;;;;;6.75;3.20;;;27.60;87.80;;;;;;5091244;28;20463;-68
2023/08/14 08:24:52;;;;;;;4.25;3.30;;;27.90;91.10;;;;;;5091483;28;20218;-66
2023/08/14 08:27:41;;;;;;;6.30;3.53;;;27.90;87.20;;;;;;5091197;28;20615;-67
2023/08/14 08:30:29;;;;;;;6.35;3.25;;;27.50;90.80;;;;;;5091373;28;20196;-67
2023/08/14 08:33:17;;;;;;;4.28;3.30;;;27.70;91.00;;;;;;5091364;28;20227;-67
2023/08/14 08:36:05;;;;;;;5.20;3.17;;;27.80;89.90;;;;;;5091405;28;20651;-67
2023/08/14 08:38:52;;;;;;;5.45;2.95;;;28.00;93.50;;;;;;5090233;28;20203;-67
2023/08/14 08:41:40;;;;;;;8.45;3.10;;;28.20;96.60;;;;;;5091163;28;20630;-67
2023/08/14 08:44:31;;;;;;;4.32;3.03;;;28.50;92.40;;;;;;5088060;28;20200;-67
2023/08/14 08:47:19;;;;;;;4.85;2.97;;;28.90;92.10;;;;;;5091387;28;20279;-67
2023/08/14 08:50:08;;;;;;;3.92;2.60;;;28.80;82.60;;;;;;5090923;28;20566;-67
2023/08/14 08:52:55;;;;;;;3.67;2.90;;;29.00;83.70;;;;;;5091496;28;20215;-67
2023/08/14 08:55:47;;;;;;;8.10;2.90;;;29.10;69.50;;;;;;5091654;28;20666;-67
2023/08/14 08:58:34;;;;;;;3.88;2.85;;;29.10;72.20;;;;;;5090390;28;20196;-68
2023/08/14 09:01:25;;;;;;;2.72;2.53;;;29.10;68.00;;;;;;5090774;28;20227;-66
2023/08/14 09:04:13;;;;;;;5.03;2.70;;;29.10;75.40;;;;;;5090936;28;20222;-67
2023/08/14 09:07:00;;;;;;;5.65;2.20;;;29.30;77.40;;;;;;5092023;28;20199;-67
2023/08/14 09:09:48;;;;;;;3.55;2.67;;;29.30;62.90;;;;;;5111086;28;20653;-67
2023/08/14 09:12:37;;;;;;;3.83;2.38;;;28.90;62.30;;;;;;5111357;28;20203;-67
2023/08/14 09:15:25;;;;;;;2.75;2.42;;;28.90;61.70;;;;;;5111680;28;20205;-67
2023/08/14 09:18:13;;;;;;;3.08;2.42;;;29.00;59.70;;;;;;5111599;28;20575;-67
2023/08/14 09:21:01;;;;;;;3.28;2.30;;;28.70;60.50;;;;;;5111697;28;20293;-67
2023/08/14 09:23:48;;;;;;;5.18;2.15;;;29.30;71.20;;;;;;5111529;28;20282;-66
2023/08/14 09:26:35;;;;;;;2.83;2.13;;;29.70;65.80;;;;;;5111011;28;20252;-67
2023/08/14 09:29:23;;;;;;;8.70;2.67;;;30.00;58.10;;;;;;5111056;28;20239;-67
2023/08/14 09:32:11;;;;;;;3.92;2.40;;;30.30;62.40;;;;;;5111383;28;20195;-67
2023/08/14 09:35:00;;;;;;;4.22;2.50;;;30.30;55.80;;;;;;5110796;28;20241;-67
2023/08/14 09:37:48;;;;;;;2.53;2.00;;;30.30;56.20;;;;;;5111361;28;20191;-66
2023/08/14 09:40:35;;;;;;;3.78;2.90;;;30.50;58.20;;;;;;5114048;28;20222;-66
2023/08/14 09:43:23;;;;;;;7.13;2.35;;;30.80;59.60;;;;;;5115712;28;20199;-67
2023/08/14 09:46:11;;;;;;;3.05;2.75;;;30.80;57.70;;;;;;5114527;28;20629;-67
2023/08/14 09:48:58;;;;;;;6.63;2.88;;;31.10;62.30;;;;;;5115157;28;20199;-66
2023/08/14 09:51:55;;;;;;;4.38;2.70;;;31.40;64.40;;;;;;5114796;28;20585;-66
2023/08/14 09:54:43;;;;;;;5.88;2.60;;;31.30;58.20;;;;;;5115450;28;20611;-67
2023/08/14 09:57:30;;;;;;;4.85;2.80;;;31.60;57.10;;;;;;5115444;28;20195;-66
2023/08/14 10:00:17;;;;;;;7.00;2.50;;;31.70;57.00;;;;;;5115231;28;20210;-66
2023/08/14 10:03:07;;;;;;;5.43;2.80;;;31.80;56.40;;;;;;5114783;28;20271;-67
2023/08/14 10:05:54;;;;;;;3.33;2.30;;;32.10;57.40;;;;;;5114439;28;20695;-67
2023/08/14 10:08:45;;;;;;;3.20;2.40;;;32.00;52.60;;;;;;5114172;28;20211;-67
2023/08/14 10:11:32;;;;;;;3.92;2.10;;;31.70;51.70;;;;;;5113458;28;20194;-67
2023/08/14 10:14:20;;;;;;;3.20;2.30;;;31.20;52.60;;;;;;5115022;28;20192;-66
2023/08/14 10:17:10;;;;;;;7.05;2.72;;;31.10;56.80;;;;;;5114582;28;20572;-67
2023/08/14 10:19:57;;;;;;;6.35;2.38;;;31.40;54.60;;;;;;5114755;28;20297;-66
2023/08/14 10:22:44;;;;;;;2.17;2.00;;;31.30;51.80;;;;;;5114251;28;20202;-67
2023/08/14 10:25:33;;;;;;;3.25;2.50;;;31.60;53.70;;;;;;5114323;28;20200;-67
2023/08/14 10:28:21;;;;;;;6.50;2.50;;;31.70;50.40;;;;;;5114563;28;20195;-66
2023/08/14 10:31:12;;;;;;;7.13;2.33;;;31.70;52.00;;;;;;5114346;28;20194;-66
2023/08/14 10:33:59;;;;;;;3.30;2.25;;;31.50;47.40;;;;;;5114028;28;20198;-66
2023/08/14 10:36:50;;;;;;;5.20;2.22;;;31.60;50.70;;;;;;5114674;28;20206;-66
2023/08/14 10:39:37;;;;;;;5.85;2.28;;;31.70;52.00;;;;;;5113763;28;20657;-67
2023/08/14 10:42:26;;;;;;;2.78;1.80;;;31.70;50.20;;;;;;5113955;28;20206;-66
2023/08/14 10:45:15;;;;;;;4.65;1.95;;;32.10;50.80;;;;;;5114278;28;20661;-67
2023/08/14 10:48:09;;;;;;;3.28;2.20;;;31.60;48.80;;;;;;5114500;28;20194;-67
2023/08/14 10:51:00;;;;;;;5.80;2.30;;;32.00;52.10;;;;;;5113964;28;20264;-66
2023/08/14 10:53:47;;;;;;;3.33;2.20;;;32.50;50.90;;;;;;5113528;28;20680;-66
2023/08/14 10:56:42;;;;;;;4.68;1.70;;;32.00;49.60;;;;;;5113725;28;20207;-66
2023/08/14 10:59:31;;;;;;;4.22;2.00;;;32.40;47.10;;;;;;5113804;28;20218;-66
2023/08/14 11:02:19;;;;;;;6.03;2.17;;;32.60;44.70;;;;;;5113981;28;20568;-67
2023/08/14 11:05:13;;;;;;;3.47;1.85;;;32.10;49.60;;;;;;5113304;28;20202;-67
2023/08/14 11:08:01;;;;;;;3.28;1.98;;;31.90;49.40;;;;;;5113599;28;20595;-66
2023/08/14 11:10:49;;;;;;;8.43;2.22;;;31.70;50.50;;;;;;5093407;28;20192;-66
2023/08/14 11:13:36;;;;;;;2.90;2.28;;;31.20;49.20;;;;;;5093594;28;20285;-66
2023/08/14 11:16:25;;;;;;;4.75;2.67;;;31.60;46.20;;;;;;5093440;28;20196;-66
2023/08/14 11:19:12;;;;;;;6.10;2.13;;;31.60;49.10;;;;;;5093320;28;20231;-67
2023/08/14 11:21:59;;;;;;;8.02;2.80;;;31.80;47.10;;;;;;5092696;28;20212;-66
2023/08/14 11:24:47;;;;;;;3.40;2.38;;;31.60;47.40;;;;;;5092772;28;20684;-67
2023/08/14 11:27:34;;;;;;;7.18;2.47;;;31.90;48.70;;;;;;5093189;28;20665;-67
2023/08/14 11:30:22;;;;;;;2.90;2.30;;;32.30;47.30;;;;;;5093802;28;20200;-66
2023/08/14 11:33:11;;;;;;;8.48;2.90;;;31.60;46.70;;;;;;5092827;28;20196;-67
2023/08/14 11:35:58;;;;;;;4.00;2.53;;;31.40;50.70;;;;;;5092738;28;20646;-66
2023/08/14 11:38:45;;;;;;;4.18;2.47;;;30.50;50.90;;;;;;5092465;28;20192;-66
2023/08/14 11:41:34;;;;;;;3.83;2.28;;;30.70;54.10;;;;;;5092467;28;20237;-66
2023/08/14 11:44:21;;;;;;;3.45;2.67;;;31.50;54.00;;;;;;5092375;28;20200;-66
2023/08/14 11:47:08;;;;;;;4.78;2.50;;;32.30;51.60;;;;;;5092506;28;20200;-66
2023/08/14 11:49:57;;;;;;;3.13;2.30;;;31.80;51.90;;;;;;5092434;28;20207;-66
2023/08/14 11:52:45;;;;;;;3.65;2.30;;;32.60;50.20;;;;;;5093192;28;20223;-67
2023/08/14 11:55:32;;;;;;;10.68;2.70;;;33.00;47.80;;;;;;5092399;28;20219;-66
2023/08/14 11:58:19;;;;;;;7.68;2.78;;;32.00;48.60;;;;;;5091957;28;20199;-67
2023/08/14 12:01:07;;;;;;;4.88;2.75;;;32.20;49.70;;;;;;5091656;28;20587;-67
2023/08/14 12:03:55;;;;;;;7.70;2.65;;;32.80;50.80;;;;;;5091719;28;20207;-66
2023/08/14 12:06:43;;;;;;;3.75;2.72;;;32.60;48.70;;;;;;5093166;28;20196;-67
2023/08/14 12:09:31;;;;;;;6.07;2.83;;;32.90;51.50;;;;;;5103608;28;20195;-66
2023/08/14 12:12:18;;;;;;;4.60;2.90;;;33.10;50.40;;;;;;5112660;28;20219;-66
2023/08/14 12:15:06;;;;;;;8.02;2.65;;;33.60;50.10;;;;;;5112016;28;20205;-67
2023/08/14 12:17:53;;;;;;;9.43;2.95;;;33.40;49.50;;;;;;5112547;28;20240;-67
2023/08/14 12:20:40;;;;;;;4.07;2.60;;;32.70;49.40;;;;;;5112000;28;20207;-66
2023/08/14 12:23:29;;;;;;;8.45;2.50;;;32.30;49.50;;;;;;5112288;28;20729;-66
2023/08/14 12:26:16;;;;;;;11.07;2.90;;;32.90;51.10;;;;;;5112421;28;20207;-67
2023/08/14 12:29:04;;;;;;;5.47;2.88;;;33.60;51.20;;;;;;5112060;28;20199;-67
2023/08/14 12:31:52;;;;;;;4.53;2.58;;;33.80;47.40;;;;;;5113492;28;20223;-67
2023/08/14 12:34:39;;;;;;;9.80;2.75;;;34.20;46.80;;;;;;5112203;28;20195;-67
2023/08/14 12:37:26;;;;;;;3.20;2.60;;;34.50;48.10;;;;;;5112234;28;20207;-66
2023/08/14 12:40:15;;;;;;;5.60;2.90;;;34.80;46.70;;;;;;5112027;28;20206;-67
2023/08/14 12:43:03;;;;;;;7.43;2.53;;;34.70;45.80;;;;;;5112030;28;20676;-67
2023/08/14 12:45:50;;;;;;;5.95;2.40;;;34.70;47.30;;;;;;5112132;28;20198;-66
2023/08/14 12:48:37;;;;;;;5.78;2.47;;;34.80;45.40;;;;;;5111271;28;20734;-67
2023/08/14 12:51:24;;;;;;;6.70;2.90;;;34.80;46.10;;;;;;5111983;28;20586;-67
2023/08/14 12:54:13;;;;;;;9.13;2.80;;;35.00;47.30;;;;;;5111516;28;20199;-67
2023/08/14 12:57:01;;;;;;;6.32;2.63;;;35.00;44.80;;;;;;5112005;28;20248;-67
2023/08/14 12:59:48;;;;;;;6.78;2.50;;;34.90;46.60;;;;;;5112250;28;20712;-67
2023/08/14 13:02:36;;;;;;;3.03;2.35;;;35.00;44.40;;;;;;5111602;28;20315;-66
2023/08/14 13:05:23;;;;;;;5.10;2.50;;;35.00;46.10;;;;;;5111926;28;20276;-66
2023/08/14 13:08:10;;;;;;;3.95;2.70;;;34.90;45.40;;;;;;5111278;28;20202;-67
2023/08/14 13:10:57;;;;;;;5.50;2.30;;;35.00;47.60;;;;;;5090584;28;20206;-67
2023/08/14 13:13:46;;;;;;;4.68;2.60;;;34.70;45.10;;;;;;5091922;28;20283;-67
2023/08/14 13:16:34;;;;;;;9.65;2.92;;;35.10;44.70;;;;;;5090627;28;20202;-67
2023/08/14 13:19:21;;;;;;;5.93;2.63;;;35.60;44.10;;;;;;5090948;28;20208;-67
2023/08/14 13:22:08;;;;;;;3.03;2.40;;;35.50;42.90;;;;;;5091308;28;20227;-67
2023/08/14 13:24:55;;;;;;;6.85;2.33;;;35.40;43.10;;;;;;5091494;28;20195;-67
2023/08/14 13:27:43;;;;;;;4.10;2.60;;;34.80;40.20;;;;;;5091782;28;20196;-67
2023/08/14 13:30:31;;;;;;;5.13;2.47;;;34.80;40.70;;;;;;5090724;28;20550;-67
2023/08/14 13:33:19;;;;;;;6.05;2.67;;;34.50;42.50;;;;;;5091136;28;20207;-67
2023/08/14 13:36:06;;;;;;;6.55;2.88;;;33.80;49.50;;;;;;5090654;28;20616;-66
2023/08/14 13:38:53;;;;;;;13.00;3.00;;;34.10;47.50;;;;;;5090352;28;20199;-67
2023/08/14 13:41:41;;;;;;;4.47;2.65;;;33.20;43.60;;;;;;5091050;28;20227;-67
2023/08/14 13:44:28;;;;;;;5.32;2.42;;;33.70;44.50;;;;;;5091225;28;20208;-67
2023/08/14 13:47:16;;;;;;;7.03;2.83;;;33.50;47.90;;;;;;5090156;28;20203;-67
2023/08/14 13:50:04;;;;;;;5.45;2.53;;;33.70;46.30;;;;;;5091164;28;20200;-67
2023/08/14 13:52:51;;;;;;;3.70;2.30;;;34.20;45.30;;;;;;5090171;28;20705;-67
2023/08/14 13:55:42;;;;;;;6.18;2.60;;;34.70;43.50;;;;;;5090405;28;20700;-67
2023/08/14 13:58:29;;;;;;;7.75;2.65;;;35.00;41.60;;;;;;5091030;28;20261;-67
2023/08/14 14:01:16;;;;;;;3.83;2.63;;;35.20;40.70;;;;;;5091071;28;20301;-67
2023/08/14 14:04:05;;;;;;;5.80;2.50;;;35.10;41.20;;;;;;5090866;28;20203;-67
2023/08/14 14:06:52;;;;;;;6.90;2.72;;;34.50;41.60;;;;;;5092641;28;20322;-67
2023/08/14 14:09:40;;;;;;;5.07;2.55;;;34.30;42.40;;;;;;5111286;28;20280;-67
2023/08/14 14:12:27;;;;;;;5.22;2.53;;;34.50;43.90;;;;;;5110583;28;20204;-67
2023/08/14 14:15:15;;;;;;;5.47;2.88;;;34.60;41.00;;;;;;5111042;28;20192;-66
2023/08/14 14:18:02;;;;;;;6.28;2.50;;;34.90;43.50;;;;;;5111184;28;20195;-67
2023/08/14 14:20:51;;;;;;;5.35;2.53;;;35.10;42.00;;;;;;5110933;28;20199;-66
2023/08/14 14:23:38;;;;;;;5.57;2.78;;;34.80;41.80;;;;;;5110372;28;20195;-66
2023/08/14 14:26:25;;;;;;;4.13;2.58;;;34.20;41.30;;;;;;5112170;28;20544;-66
2023/08/14 14:29:13;;;;;;;7.47;2.47;;;33.90;41.70;;;;;;5114984;28;20334;-67
2023/08/14 14:32:00;;;;;;;7.03;2.65;;;33.20;43.10;;;;;;5114901;28;20221;-66